This is the latest recevied weather packets stored in our database for station/object KE9ADS. If no packets are shown the sender has not sent any weather packets the latest 10 day(s).
| Time | Temp. | Humidity | Pressure | Rain* | Wind** | Luminosity | Snow |
|---|---|---|---|---|---|---|---|
| 1777560670 | 13.89° C | 49% | 1019.2 hPa | 0 mm | - | 504 W/m² | - |
| 1777560066 | 13.33° C | 47% | 1019.5 hPa | 0 mm | - | 518 W/m² | - |
| 1777559464 | 12.22° C | 49% | 1019.7 hPa | 0 mm | - | 455 W/m² | - |
| 1777558861 | 11.67° C | 51% | 1019.7 hPa | 0 mm | - | 174 W/m² | - |
| 1777558259 | 12.22° C | 48% | 1019.9 hPa | 0 mm | - | 163 W/m² | - |
| 1777557658 | 11.11° C | 49% | 1020 hPa | 0 mm | - | 189 W/m² | - |
| 1777557057 | 11.67° C | 50% | 1020 hPa | 0 mm | - | 192 W/m² | - |
| 1777556455 | 11.67° C | 51% | 1020.1 hPa | 0 mm | - | 144 W/m² | - |
| 1777555850 | 11.67° C | 52% | 1019.9 hPa | 0 mm | - | 385 W/m² | - |
| 1777555249 | 11.11° C | 57% | 1020.2 hPa | 0 mm | - | 237 W/m² | - |
| 1777554649 | 10.56° C | 59% | 1020.2 hPa | 0 mm | - | 206 W/m² | - |
| 1777554048 | 9.44° C | 62% | 1020.3 hPa | 0 mm | - | 61 W/m² | - |
| 1777553448 | 8.33° C | 66% | 1020.2 hPa | 0 mm | - | 144 W/m² | - |
| 1777552843 | 7.78° C | 68% | 1020.3 hPa | 0 mm | - | 127 W/m² | - |
| 1777552241 | 6.67° C | 69% | 1020.4 hPa | 0 mm | - | 105 W/m² | - |
| 1777551636 | 5.56° C | 70% | 1020.1 hPa | 0 mm | - | 51 W/m² | - |
| 1777551035 | 5° C | 74% | 1020.1 hPa | 0 mm | - | 44 W/m² | - |
| 1777550435 | 3.89° C | 79% | 1020.2 hPa | 0 mm | - | 39 W/m² | - |
| 1777549833 | 3.33° C | 83% | 1020 hPa | 0 mm | - | 29 W/m² | - |
| 1777549232 | 2.78° C | 86% | 1019.8 hPa | 0 mm | - | 23 W/m² | - |
| 1777548632 | 2.22° C | 88% | 1019.7 hPa | 0 mm | - | 18 W/m² | - |
| 1777548026 | 2.22° C | 87% | 1019.6 hPa | 0 mm | - | 10 W/m² | - |
| 1777547423 | 2.22° C | 86% | 1019.7 hPa | 0 mm | - | 6 W/m² | - |
| 1777546818 | 2.22° C | 86% | 1019.7 hPa | 0 mm | - | 2 W/m² | - |
| 1777546217 | 2.22° C | 85% | 1019.5 hPa | 0 mm | - | 1 W/m² | - |
* Rain latest hour (hover to see other rain measurements)
** Current wind speed in m/s (hover to see current wind gust speed)